createdAt,value
2019-06-20T00:00:08.460Z,96054.00
2019-06-20T00:03:17.913Z,96061.00
2019-06-20T00:06:26.305Z,96057.00
2019-06-20T00:09:35.285Z,96067.00
2019-06-20T00:12:59.453Z,96072.00
2019-06-20T00:15:55.797Z,96064.00
2019-06-20T00:19:03.747Z,96083.00
2019-06-20T00:22:12.098Z,96085.00
2019-06-20T00:25:19.850Z,96117.00
2019-06-20T00:28:27.772Z,96093.00
2019-06-20T00:31:36.116Z,96110.00
2019-06-20T00:34:43.855Z,96121.00
2019-06-20T00:37:51.924Z,96113.00
2019-06-20T00:40:59.595Z,96138.00
2019-06-20T00:44:07.382Z,96127.00
2019-06-20T00:47:15.163Z,96131.00
2019-06-20T00:50:22.984Z,96137.00
2019-06-20T00:53:31.735Z,96144.00
2019-06-20T00:56:39.492Z,96139.00
2019-06-20T00:59:47.473Z,96146.00
2019-06-20T01:02:55.607Z,96145.00
2019-06-20T01:06:03.464Z,96161.00
2019-06-20T01:09:11.186Z,96172.00
2019-06-20T01:12:19.111Z,96170.00
2019-06-20T01:15:27.176Z,96186.00
2019-06-20T01:18:35.004Z,96192.00
2019-06-20T01:21:42.831Z,96191.00
2019-06-20T01:24:50.569Z,96189.00
2019-06-20T01:27:58.768Z,96208.00
2019-06-20T01:31:12.574Z,96227.00
2019-06-20T01:34:21.458Z,96228.00
2019-06-20T01:37:29.263Z,96242.00
2019-06-20T01:40:37.218Z,96258.00
2019-06-20T01:43:50.640Z,96269.00
2019-06-20T01:46:54.667Z,96266.00
2019-06-20T01:50:02.815Z,96275.00
2019-06-20T01:53:10.541Z,96296.00
2019-06-20T01:56:18.285Z,96292.00
2019-06-20T01:59:25.998Z,96291.00
2019-06-20T02:02:33.682Z,96292.00
2019-06-20T02:05:41.475Z,96312.00
2019-06-20T02:08:49.240Z,96309.00
2019-06-20T02:11:57.006Z,96306.00
2019-06-20T02:15:05.050Z,96301.00
2019-06-20T02:18:13.014Z,96311.00
2019-06-20T02:21:20.752Z,96317.00
2019-06-20T02:24:28.492Z,96304.00
2019-06-20T02:27:36.145Z,96306.00
2019-06-20T02:30:44.118Z,96301.00
2019-06-20T02:33:52.923Z,96305.00
2019-06-20T02:37:00.589Z,96293.00
2019-06-20T02:40:08.591Z,96290.00
2019-06-20T02:43:16.462Z,96291.00
2019-06-20T02:46:24.360Z,96288.00
2019-06-20T02:49:32.369Z,96289.00
2019-06-20T02:52:40.472Z,96279.00
2019-06-20T02:55:48.205Z,96285.00
2019-06-20T02:58:55.966Z,96284.00
2019-06-20T03:02:03.679Z,96274.00
2019-06-20T03:05:12.876Z,96257.00
2019-06-20T03:08:20.682Z,96243.00
2019-06-20T03:11:28.440Z,96250.00
2019-06-20T03:14:44.923Z,96247.00
2019-06-20T03:17:45.634Z,96238.00
2019-06-20T03:20:53.581Z,96239.00
2019-06-20T03:24:02.213Z,96232.00
2019-06-20T03:27:09.881Z,96232.00
2019-06-20T03:30:17.991Z,96233.00
2019-06-20T03:33:26.207Z,96227.00
2019-06-20T03:36:34.005Z,96218.00
2019-06-20T03:39:41.751Z,96229.00
2019-06-20T03:42:50.688Z,96236.00
2019-06-20T03:46:01.734Z,96215.00
2019-06-20T03:49:09.750Z,96220.00
2019-06-20T03:52:17.409Z,96215.00
2019-06-20T03:55:26.024Z,96215.00
2019-06-20T03:58:33.694Z,96230.00
2019-06-20T04:01:41.489Z,96240.00
2019-06-20T04:04:49.250Z,96240.00
2019-06-20T04:07:57.334Z,96240.00
2019-06-20T04:11:05.091Z,96247.00
2019-06-20T04:14:13.177Z,96251.00
2019-06-20T04:17:20.820Z,96256.00
2019-06-20T04:20:28.837Z,96249.00
2019-06-20T04:23:36.601Z,96248.00
2019-06-20T04:26:44.471Z,96248.00
2019-06-20T04:29:52.286Z,96275.00
2019-06-20T04:33:00.049Z,96284.00
2019-06-20T04:36:07.821Z,96283.00
2019-06-20T04:39:19.396Z,96284.00
2019-06-20T04:42:25.367Z,96283.00
2019-06-20T04:45:42.212Z,96295.00
2019-06-20T04:48:49.907Z,96303.00
2019-06-20T04:51:57.722Z,96306.00
2019-06-20T04:55:05.744Z,96305.00
2019-06-20T04:58:14.576Z,96301.00
2019-06-20T05:01:22.413Z,96307.00
2019-06-20T05:04:30.151Z,96317.00
2019-06-20T05:07:38.030Z,96322.00
2019-06-20T05:10:45.756Z,96314.00
2019-06-20T05:13:53.493Z,96309.00
2019-06-20T05:17:01.354Z,96310.00
2019-06-20T05:20:09.205Z,96319.00
2019-06-20T05:23:16.940Z,96318.00
2019-06-20T05:26:25.100Z,96318.00
2019-06-20T05:29:32.902Z,96327.00
2019-06-20T05:32:42.059Z,96327.00
2019-06-20T05:35:50.245Z,96339.00
2019-06-20T05:38:57.965Z,96324.00
2019-06-20T05:42:05.952Z,96335.00
2019-06-20T05:45:14.370Z,96321.00
2019-06-20T05:48:22.121Z,96332.00
2019-06-20T05:51:30.333Z,96352.00
2019-06-20T05:54:38.237Z,96342.00
2019-06-20T05:57:45.989Z,96338.00
2019-06-20T06:00:54.101Z,96339.00
2019-06-20T06:04:01.757Z,96339.00
2019-06-20T06:07:09.594Z,96348.00
2019-06-20T06:10:17.472Z,96339.00
2019-06-20T06:13:25.551Z,96363.00
2019-06-20T06:16:33.299Z,96351.00
2019-06-20T06:19:41.042Z,96344.00
2019-06-20T06:22:48.793Z,96352.00
2019-06-20T06:25:56.795Z,96342.00
2019-06-20T06:29:04.746Z,96340.00
2019-06-20T06:32:13.491Z,96340.00
2019-06-20T06:35:21.553Z,96341.00
2019-06-20T06:38:29.645Z,96354.00
2019-06-20T06:41:37.722Z,96362.00
2019-06-20T06:44:45.470Z,96367.00
2019-06-20T06:47:53.453Z,96366.00
2019-06-20T06:51:01.494Z,96379.00
2019-06-20T06:54:11.211Z,96373.00
2019-06-20T06:57:19.462Z,96375.00
2019-06-20T07:00:27.415Z,96360.00
2019-06-20T07:03:35.406Z,96378.00
2019-06-20T07:06:43.475Z,96384.00
2019-06-20T07:09:51.407Z,96395.00
2019-06-20T07:12:59.594Z,96402.00
2019-06-20T07:16:07.584Z,96393.00
2019-06-20T07:19:15.763Z,96384.00
2019-06-20T07:22:23.526Z,96388.00
2019-06-20T07:25:31.583Z,96380.00
2019-06-20T07:28:39.616Z,96385.00
2019-06-20T07:31:47.844Z,96395.00
2019-06-20T07:34:56.045Z,96389.00
2019-06-20T07:38:04.428Z,96387.00
2019-06-20T07:41:12.268Z,96386.00
2019-06-20T07:44:20.237Z,96389.00
2019-06-20T07:47:28.126Z,96378.00
2019-06-20T07:50:39.345Z,96388.00
2019-06-20T07:53:52.026Z,96383.00
2019-06-20T07:57:00.726Z,96389.00
2019-06-20T08:00:09.537Z,96386.00
2019-06-20T08:03:17.828Z,96394.00
2019-06-20T08:06:26.690Z,96390.00
2019-06-20T08:09:44.950Z,96404.00
2019-06-20T08:12:44.576Z,96398.00
2019-06-20T08:15:52.514Z,96404.00
2019-06-20T08:19:00.413Z,96398.00
2019-06-20T08:22:08.397Z,96408.00
2019-06-20T08:25:16.931Z,96391.00
2019-06-20T08:28:24.999Z,96404.00
2019-06-20T08:31:32.976Z,96397.00
2019-06-20T08:34:40.903Z,96389.00
2019-06-20T08:37:49.017Z,96391.00
2019-06-20T08:40:58.322Z,96378.00
2019-06-20T08:44:06.834Z,96378.00
2019-06-20T08:47:15.909Z,96355.00
2019-06-20T08:50:24.091Z,96367.00
2019-06-20T08:53:32.015Z,96364.00
2019-06-20T08:56:39.980Z,96359.00
2019-06-20T08:59:48.049Z,96359.00
2019-06-20T09:02:57.353Z,96356.00
2019-06-20T09:06:06.987Z,96357.00
2019-06-20T09:09:15.226Z,96351.00
2019-06-20T09:12:23.139Z,96351.00
2019-06-20T09:15:31.108Z,96351.00
2019-06-20T09:18:38.932Z,96361.00
2019-06-20T09:21:46.976Z,96360.00
2019-06-20T09:24:55.518Z,96359.00
2019-06-20T09:28:05.313Z,96359.00
2019-06-20T09:31:13.308Z,96363.00
2019-06-20T09:34:21.173Z,96372.00
2019-06-20T09:37:29.538Z,96389.00
2019-06-20T09:40:37.467Z,96366.00
2019-06-20T09:43:45.309Z,96370.00
2019-06-20T09:46:53.954Z,96370.00
2019-06-20T09:50:02.285Z,96363.00
2019-06-20T09:53:10.124Z,96361.00
2019-06-20T09:56:17.956Z,96366.00
2019-06-20T09:59:27.923Z,96376.00
2019-06-20T10:02:37.049Z,96382.00
2019-06-20T10:05:47.145Z,96384.00
2019-06-20T10:08:54.765Z,96381.00
2019-06-20T10:12:02.959Z,96386.00
2019-06-20T10:15:24.703Z,96386.00
2019-06-20T10:18:32.716Z,96379.00
2019-06-20T10:21:40.595Z,96390.00
2019-06-20T10:24:49.171Z,96393.00
2019-06-20T10:27:59.282Z,96399.00
2019-06-20T10:31:10.002Z,96402.00
2019-06-20T10:34:22.942Z,96409.00
2019-06-20T10:37:30.908Z,96406.00
2019-06-20T10:40:40.963Z,96396.00
2019-06-20T10:43:49.568Z,96391.00
2019-06-20T10:46:57.831Z,96395.00
2019-06-20T10:50:06.867Z,96395.00
2019-06-20T10:53:14.745Z,96400.00
2019-06-20T10:56:22.775Z,96389.00
2019-06-20T10:59:30.632Z,96395.00
2019-06-20T11:02:41.696Z,96407.00
2019-06-20T11:05:49.884Z,96390.00
2019-06-20T11:09:04.336Z,96393.00
2019-06-20T11:12:12.211Z,96393.00
2019-06-20T11:15:23.918Z,96389.00
2019-06-20T11:18:31.829Z,96394.00
2019-06-20T11:21:40.175Z,96387.00
2019-06-20T11:24:49.449Z,96379.00
2019-06-20T11:27:57.392Z,96384.00
2019-06-20T11:31:05.372Z,96376.00
2019-06-20T11:34:13.260Z,96380.00
2019-06-20T11:37:21.166Z,96379.00
2019-06-20T11:40:29.231Z,96369.00
2019-06-20T11:43:38.374Z,96363.00
2019-06-20T11:46:47.156Z,96374.00
2019-06-20T11:49:54.877Z,96355.00
2019-06-20T11:53:03.245Z,96356.00
2019-06-20T11:56:11.162Z,96352.00
2019-06-20T11:59:19.019Z,96334.00
2019-06-20T12:02:26.820Z,96335.00
2019-06-20T12:05:34.668Z,96330.00
2019-06-20T12:08:42.686Z,96324.00
2019-06-20T12:11:50.572Z,96324.00
2019-06-20T12:14:58.432Z,96322.00
2019-06-20T12:18:06.499Z,96318.00
2019-06-20T12:21:14.460Z,96315.00
2019-06-20T12:24:22.519Z,96311.00
2019-06-20T12:27:32.231Z,96310.00
2019-06-20T12:30:41.618Z,96310.00
2019-06-20T12:33:49.627Z,96299.00
2019-06-20T12:36:57.635Z,96295.00
2019-06-20T12:40:05.968Z,96309.00
2019-06-20T12:43:14.204Z,96296.00
2019-06-20T12:46:22.446Z,96300.00
2019-06-20T12:49:30.694Z,96293.00
2019-06-20T12:52:39.588Z,96285.00
2019-06-20T12:55:48.251Z,96291.00
2019-06-20T12:58:56.683Z,96283.00
2019-06-20T13:02:04.932Z,96290.00
2019-06-20T13:05:14.725Z,96290.00
2019-06-20T13:08:22.585Z,96282.00
2019-06-20T13:11:31.011Z,96284.00
2019-06-20T13:14:39.661Z,96281.00
2019-06-20T13:17:49.322Z,96285.00
2019-06-20T13:20:58.227Z,96286.00
2019-06-20T13:24:06.099Z,96289.00
2019-06-20T13:27:13.927Z,96280.00
2019-06-20T13:30:22.594Z,96288.00
2019-06-20T13:33:30.568Z,96283.00
2019-06-20T13:36:39.887Z,96266.00
2019-06-20T13:39:50.053Z,96266.00
2019-06-20T13:42:58.175Z,96256.00
2019-06-20T13:46:06.331Z,96236.00
2019-06-20T13:49:14.201Z,96230.00
2019-06-20T13:52:21.996Z,96222.00
2019-06-20T13:55:30.027Z,96216.00
2019-06-20T13:58:40.520Z,96217.00
2019-06-20T14:01:49.021Z,96231.00
2019-06-20T14:04:56.821Z,96242.00
2019-06-20T14:08:05.164Z,96247.00
2019-06-20T14:11:13.433Z,96246.00
2019-06-20T14:14:21.414Z,96239.00
2019-06-20T14:17:29.549Z,96256.00
2019-06-20T14:20:37.650Z,96273.00
2019-06-20T14:23:46.205Z,96275.00
2019-06-20T14:26:55.342Z,96260.00
2019-06-20T14:30:03.720Z,96249.00
2019-06-20T14:33:11.964Z,96258.00
2019-06-20T14:36:20.177Z,96260.00
2019-06-20T14:39:28.050Z,96266.00
2019-06-20T14:42:35.921Z,96286.00
2019-06-20T14:45:45.520Z,96279.00
2019-06-20T14:48:54.299Z,96290.00
2019-06-20T14:52:02.526Z,96298.00
2019-06-20T14:55:10.874Z,96296.00
2019-06-20T14:58:18.931Z,96285.00
2019-06-20T15:01:26.757Z,96295.00
2019-06-20T15:04:34.617Z,96300.00
2019-06-20T15:07:45.033Z,96296.00
2019-06-20T15:10:52.126Z,96308.00
2019-06-20T15:13:59.944Z,96310.00
2019-06-20T15:17:07.720Z,96328.00
2019-06-20T15:20:16.255Z,96350.00
2019-06-20T15:23:24.768Z,96408.00
2019-06-20T15:26:33.992Z,96402.00
2019-06-20T15:29:41.969Z,96417.00
2019-06-20T15:33:03.986Z,96436.00
2019-06-20T15:35:59.293Z,96441.00
2019-06-20T15:39:08.059Z,96454.00
2019-06-20T15:42:15.901Z,96455.00
2019-06-20T15:45:24.112Z,96451.00
2019-06-20T15:48:32.333Z,96474.00
2019-06-20T15:51:41.534Z,96491.00
2019-06-20T15:54:49.735Z,96486.00
2019-06-20T15:57:57.534Z,96485.00
2019-06-20T16:01:05.351Z,96479.00
2019-06-20T16:04:13.419Z,96473.00
2019-06-20T16:07:21.181Z,96480.00
2019-06-20T16:10:28.960Z,96492.00
2019-06-20T16:13:36.719Z,96488.00
2019-06-20T16:16:44.645Z,96487.00
2019-06-20T16:19:52.886Z,96465.00
2019-06-20T16:23:00.986Z,96450.00
2019-06-20T16:26:09.573Z,96429.00
2019-06-20T16:29:17.368Z,96429.00
2019-06-20T16:32:25.465Z,96406.00
2019-06-20T16:35:33.566Z,96422.00
2019-06-20T16:38:41.728Z,96444.00
2019-06-20T16:41:49.602Z,96442.00
2019-06-20T16:44:57.388Z,96442.00
2019-06-20T16:48:05.298Z,96434.00
2019-06-20T16:51:12.965Z,96422.00
2019-06-20T16:54:20.775Z,96441.00
2019-06-20T16:57:28.420Z,96470.00
2019-06-20T17:00:37.620Z,96484.00
2019-06-20T17:03:45.311Z,96489.00
2019-06-20T17:06:53.086Z,96485.00
2019-06-20T17:10:00.836Z,96483.00
2019-06-20T17:13:08.666Z,96473.00
2019-06-20T17:16:16.449Z,96475.00
2019-06-20T17:19:24.276Z,96490.00
2019-06-20T17:22:32.407Z,96500.00
2019-06-20T17:25:40.305Z,96484.00
2019-06-20T17:28:48.029Z,96469.00
2019-06-20T17:31:57.515Z,96469.00
2019-06-20T17:35:06.906Z,96483.00
2019-06-20T17:38:15.380Z,96484.00
2019-06-20T17:41:23.264Z,96501.00
2019-06-20T17:44:31.100Z,96489.00
2019-06-20T17:47:39.074Z,96502.00
2019-06-20T17:50:46.893Z,96512.00
2019-06-20T17:53:54.577Z,96495.00
2019-06-20T17:57:03.116Z,96510.00
2019-06-20T18:00:12.126Z,96498.00
2019-06-20T18:03:19.788Z,96492.00
2019-06-20T18:06:27.536Z,96494.00
2019-06-20T18:09:35.683Z,96510.00
2019-06-20T18:12:45.258Z,96496.00
2019-06-20T18:15:53.022Z,96485.00
2019-06-20T18:19:01.039Z,96493.00
2019-06-20T18:22:08.917Z,96504.00
2019-06-20T18:25:17.184Z,96494.00
2019-06-20T18:28:24.916Z,96493.00
2019-06-20T18:31:32.678Z,96501.00
2019-06-20T18:34:40.544Z,96490.00
2019-06-20T18:37:48.298Z,96480.00
2019-06-20T18:40:56.175Z,96497.00
2019-06-20T18:44:03.924Z,96501.00
2019-06-20T18:47:11.706Z,96491.00
2019-06-20T18:50:19.614Z,96494.00
2019-06-20T18:53:27.372Z,96486.00
2019-06-20T18:56:35.245Z,96485.00
2019-06-20T18:59:43.354Z,96473.00
2019-06-20T19:02:51.724Z,96464.00
2019-06-20T19:05:59.611Z,96477.00
2019-06-20T19:09:09.708Z,96463.00
2019-06-20T19:12:17.452Z,96471.00
2019-06-20T19:15:25.931Z,96461.00
2019-06-20T19:18:33.661Z,96470.00
2019-06-20T19:21:41.457Z,96462.00
2019-06-20T19:24:49.528Z,96487.00
2019-06-20T19:28:00.770Z,96478.00
2019-06-20T19:31:14.351Z,96486.00
2019-06-20T19:34:22.101Z,96498.00
2019-06-20T19:37:33.468Z,96496.00
2019-06-20T19:40:46.474Z,96479.00
2019-06-20T19:43:54.460Z,96487.00
2019-06-20T19:47:02.317Z,96478.00
2019-06-20T19:50:11.153Z,96489.00
2019-06-20T19:53:19.092Z,96494.00
2019-06-20T19:56:27.180Z,96495.00
2019-06-20T19:59:35.760Z,96504.00
2019-06-20T20:02:43.807Z,96510.00
2019-06-20T20:05:52.312Z,96523.00
2019-06-20T20:09:00.059Z,96512.00
2019-06-20T20:12:07.955Z,96517.00
2019-06-20T20:15:16.053Z,96520.00
2019-06-20T20:18:23.874Z,96518.00
2019-06-20T20:21:31.980Z,96539.00
2019-06-20T20:24:39.893Z,96537.00
2019-06-20T20:27:47.719Z,96550.00
2019-06-20T20:30:55.568Z,96558.00
2019-06-20T20:34:03.271Z,96550.00
2019-06-20T20:37:11.479Z,96559.00
2019-06-20T20:40:20.473Z,96558.00
2019-06-20T20:43:28.444Z,96560.00
2019-06-20T20:46:36.594Z,96569.00
2019-06-20T20:49:44.579Z,96573.00
2019-06-20T20:52:52.729Z,96580.00
2019-06-20T20:56:02.513Z,96589.00
2019-06-20T20:59:09.966Z,96583.00
2019-06-20T21:02:17.701Z,96583.00
2019-06-20T21:05:25.597Z,96594.00
2019-06-20T21:08:33.505Z,96594.00
2019-06-20T21:11:41.871Z,96600.00
2019-06-20T21:14:49.667Z,96594.00
2019-06-20T21:17:57.428Z,96603.00
2019-06-20T21:21:06.740Z,96599.00
2019-06-20T21:24:14.520Z,96616.00
2019-06-20T21:27:22.352Z,96595.00
2019-06-20T21:30:30.751Z,96597.00
2019-06-20T21:33:38.573Z,96609.00
2019-06-20T21:36:46.227Z,96615.00
2019-06-20T21:39:53.934Z,96616.00
2019-06-20T21:43:01.664Z,96615.00
2019-06-20T21:46:09.549Z,96615.00
2019-06-20T21:49:17.430Z,96618.00
2019-06-20T21:52:26.475Z,96614.00
2019-06-20T21:55:34.656Z,96618.00
2019-06-20T21:58:42.737Z,96606.00
2019-06-20T22:01:50.477Z,96618.00
2019-06-20T22:04:59.208Z,96624.00
2019-06-20T22:08:08.434Z,96603.00
2019-06-20T22:11:16.625Z,96601.00
2019-06-20T22:14:25.222Z,96600.00
2019-06-20T22:17:32.903Z,96606.00
2019-06-20T22:20:40.880Z,96609.00
2019-06-20T22:23:48.880Z,96596.00
2019-06-20T22:26:56.651Z,96590.00
2019-06-20T22:30:05.769Z,96605.00
2019-06-20T22:33:14.099Z,96601.00
2019-06-20T22:36:22.285Z,96604.00
2019-06-20T22:39:30.058Z,96589.00
2019-06-20T22:42:37.801Z,96582.00
2019-06-20T22:45:45.902Z,96602.00
2019-06-20T22:48:54.296Z,96605.00
2019-06-20T22:52:02.183Z,96606.00
2019-06-20T22:55:10.591Z,96585.00
2019-06-20T22:58:18.666Z,96596.00
2019-06-20T23:01:26.624Z,96589.00
2019-06-20T23:04:35.843Z,96605.00
2019-06-20T23:07:43.797Z,96598.00
2019-06-20T23:10:51.976Z,96606.00
2019-06-20T23:14:00.032Z,96607.00
2019-06-20T23:17:07.901Z,96598.00
2019-06-20T23:20:16.810Z,96611.00
2019-06-20T23:23:24.759Z,96606.00
2019-06-20T23:26:32.509Z,96603.00
2019-06-20T23:29:40.611Z,96610.00
2019-06-20T23:32:48.722Z,96596.00
2019-06-20T23:35:56.596Z,96615.00
2019-06-20T23:39:05.425Z,96616.00
2019-06-20T23:42:13.225Z,96601.00
2019-06-20T23:45:21.175Z,96611.00
2019-06-20T23:48:28.991Z,96600.00
2019-06-20T23:51:39.842Z,96611.00
2019-06-20T23:54:47.520Z,96597.00
2019-06-20T23:57:55.507Z,96610.00
